Time;durP1;ratioP1;P1;durP2;ratioP2;P2;SDS_P1;SDS_P2;PMS_P1;PMS_P2;Temp;Humidity;BMP_temperature;BMP_pressure;BME280_temperature;BME280_humidity;BME280_pressure;Samples;Min_cycle;Max_cycle;Signal;HPM_P1;HPM_P2
2023/08/20 00:00:21;;;;;;;8.63;5.90;;;22.70;96.40;;;;;;5074935;28;20849;-59
2023/08/20 00:02:56;;;;;;;8.10;5.33;;;22.70;96.30;;;;;;5075676;28;20441;-59
2023/08/20 00:05:23;;;;;;;7.53;6.47;;;22.60;96.30;;;;;;5076080;28;20417;-59
2023/08/20 00:07:50;;;;;;;6.73;6.13;;;22.60;96.20;;;;;;5076288;28;20437;-59
2023/08/20 00:10:18;;;;;;;7.10;6.40;;;22.60;96.20;;;;;;5075982;28;20441;-59
2023/08/20 00:12:45;;;;;;;11.27;6.60;;;22.50;96.40;;;;;;5074855;28;20558;-59
2023/08/20 00:15:11;;;;;;;7.37;6.57;;;22.50;96.60;;;;;;5075159;28;20498;-59
2023/08/20 00:17:40;;;;;;;9.67;8.00;;;22.50;96.90;;;;;;5074487;28;20451;-59
2023/08/20 00:20:10;;;;;;;6.97;6.37;;;22.50;96.90;;;;;;5074537;28;20445;-58
2023/08/20 00:22:37;;;;;;;8.17;6.40;;;22.50;97.00;;;;;;5074562;28;20912;-59
2023/08/20 00:25:05;;;;;;;8.27;6.77;;;22.50;96.90;;;;;;5074996;28;20441;-58
2023/08/20 00:27:33;;;;;;;7.40;6.23;;;22.50;96.80;;;;;;5074757;28;20471;-58
2023/08/20 00:30:00;;;;;;;10.97;6.67;;;22.40;96.70;;;;;;5074413;28;20922;-59
2023/08/20 00:32:27;;;;;;;7.60;6.10;;;22.40;96.80;;;;;;5074386;28;21033;-59
2023/08/20 00:34:54;;;;;;;9.83;6.33;;;22.40;96.90;;;;;;5074601;28;20515;-59
2023/08/20 00:37:21;;;;;;;8.17;7.43;;;22.30;96.90;;;;;;5074658;28;20471;-59
2023/08/20 00:39:47;;;;;;;6.43;5.83;;;22.30;97.00;;;;;;5074454;28;20456;-59
2023/08/20 00:42:14;;;;;;;7.00;6.30;;;22.40;97.00;;;;;;5074080;28;20457;-59
2023/08/20 00:44:44;;;;;;;8.27;6.80;;;22.30;96.90;;;;;;5074134;28;20433;-59
2023/08/20 00:47:11;;;;;;;7.43;6.50;;;22.30;97.20;;;;;;5074266;28;20448;-59
2023/08/20 00:49:38;;;;;;;10.40;6.33;;;22.30;97.10;;;;;;5074309;28;20436;-59
2023/08/20 00:52:07;;;;;;;6.90;6.30;;;22.30;97.20;;;;;;5074087;28;20545;-59
2023/08/20 00:54:35;;;;;;;9.67;7.70;;;22.20;97.10;;;;;;5074264;28;20445;-59
2023/08/20 00:57:02;;;;;;;6.53;5.80;;;22.20;97.00;;;;;;5074102;28;20436;-59
2023/08/20 00:59:32;;;;;;;7.90;6.40;;;22.20;97.10;;;;;;5074109;28;20445;-59
2023/08/20 01:02:02;;;;;;;7.27;5.67;;;22.20;97.20;;;;;;5073798;28;20464;-59
2023/08/20 01:04:30;;;;;;;7.70;5.50;;;22.10;97.10;;;;;;5073522;28;20479;-59
2023/08/20 01:07:09;;;;;;;6.57;5.70;;;22.10;97.00;;;;;;5074114;28;20544;-59
2023/08/20 01:09:49;;;;;;;10.03;6.40;;;22.10;97.10;;;;;;5074009;28;20429;-59
2023/08/20 01:12:18;;;;;;;7.57;5.80;;;22.10;97.20;;;;;;5073486;28;20605;-59
2023/08/20 01:14:44;;;;;;;8.27;5.63;;;22.10;97.30;;;;;;5073814;28;20456;-59
2023/08/20 01:17:12;;;;;;;7.73;7.00;;;22.10;97.50;;;;;;5073788;28;20448;-59
2023/08/20 01:19:39;;;;;;;9.87;6.57;;;22.00;97.40;;;;;;5073727;28;20835;-59
2023/08/20 01:22:22;;;;;;;7.73;6.97;;;22.00;97.50;;;;;;5073577;28;20474;-59
2023/08/20 01:25:05;;;;;;;7.87;7.07;;;22.00;97.70;;;;;;5073772;28;20429;-59
2023/08/20 01:27:48;;;;;;;10.43;7.87;;;22.00;97.70;;;;;;5073805;28;20424;-59
2023/08/20 01:30:17;;;;;;;8.93;6.50;;;22.00;97.70;;;;;;5073759;28;20433;-59
2023/08/20 01:32:44;;;;;;;9.27;6.70;;;22.00;97.90;;;;;;5073503;28;20538;-59
2023/08/20 01:35:13;;;;;;;10.90;7.33;;;22.00;98.00;;;;;;5073449;28;20811;-59
2023/08/20 01:37:40;;;;;;;9.90;7.40;;;22.00;98.00;;;;;;5073568;28;20996;-59
2023/08/20 01:40:10;;;;;;;8.70;7.90;;;22.00;97.90;;;;;;5073807;28;20448;-59
2023/08/20 01:42:37;;;;;;;9.23;7.50;;;22.00;98.00;;;;;;5073455;28;20563;-58
2023/08/20 01:45:04;;;;;;;7.70;6.93;;;22.00;98.00;;;;;;5073560;28;20841;-59
2023/08/20 01:47:32;;;;;;;10.63;7.27;;;22.00;98.00;;;;;;5073257;28;20930;-59
2023/08/20 01:49:59;;;;;;;7.90;7.17;;;22.00;98.00;;;;;;5073445;28;20445;-59
2023/08/20 01:52:26;;;;;;;9.80;6.80;;;21.90;97.90;;;;;;5073237;28;20579;-59
2023/08/20 01:54:53;;;;;;;9.47;7.43;;;21.90;98.20;;;;;;5073374;28;20441;-59
2023/08/20 01:57:20;;;;;;;8.10;7.33;;;21.90;98.30;;;;;;5073307;28;20452;-59
2023/08/20 01:59:48;;;;;;;13.27;7.77;;;21.90;98.40;;;;;;5073461;28;20447;-59
2023/08/20 02:02:14;;;;;;;9.50;7.80;;;21.90;98.40;;;;;;5072899;28;21026;-59
2023/08/20 02:04:42;;;;;;;9.03;8.13;;;21.90;98.70;;;;;;5073318;28;20445;-59
2023/08/20 02:07:09;;;;;;;8.63;7.50;;;22.00;98.90;;;;;;5073163;28;20441;-59
2023/08/20 02:09:36;;;;;;;8.77;7.13;;;21.90;98.90;;;;;;5074607;28;20452;-59
2023/08/20 02:12:02;;;;;;;8.83;7.87;;;21.90;98.80;;;;;;5072955;28;20566;-59
2023/08/20 02:14:29;;;;;;;12.87;8.90;;;21.90;98.80;;;;;;5073103;28;20440;-59
2023/08/20 02:16:56;;;;;;;14.67;8.23;;;21.90;98.80;;;;;;5075788;28;20562;-59
2023/08/20 02:19:23;;;;;;;12.43;8.47;;;21.90;98.80;;;;;;5077160;28;20436;-59
2023/08/20 02:21:51;;;;;;;13.07;8.47;;;21.90;98.90;;;;;;5076741;28;20480;-59
2023/08/20 02:24:17;;;;;;;8.93;7.90;;;21.80;99.00;;;;;;5076810;28;20978;-59
2023/08/20 02:26:44;;;;;;;10.00;8.90;;;21.80;99.10;;;;;;5076766;28;20958;-59
2023/08/20 02:29:10;;;;;;;11.33;9.93;;;21.80;99.40;;;;;;5076804;28;20448;-59
2023/08/20 02:31:37;;;;;;;15.30;11.23;;;21.70;99.60;;;;;;5076502;28;20990;-59
2023/08/20 02:34:04;;;;;;;12.20;10.53;;;21.70;99.90;;;;;;5076912;28;20440;-58
2023/08/20 02:36:31;;;;;;;14.10;9.70;;;21.60;99.90;;;;;;5076579;28;20839;-58
2023/08/20 02:38:59;;;;;;;14.20;10.53;;;21.60;99.90;;;;;;5076768;28;20455;-58
2023/08/20 02:41:25;;;;;;;12.00;10.90;;;21.60;99.90;;;;;;5076644;28;20456;-58
2023/08/20 02:43:52;;;;;;;11.83;10.47;;;21.60;99.90;;;;;;5076784;28;20439;-58
2023/08/20 02:46:19;;;;;;;13.90;10.10;;;21.60;99.90;;;;;;5076654;28;20452;-58
2023/08/20 02:48:45;;;;;;;13.90;9.90;;;21.60;99.90;;;;;;5076537;28;20449;-58
2023/08/20 02:51:12;;;;;;;11.83;9.33;;;21.60;99.90;;;;;;5076253;28;20468;-58
2023/08/20 02:53:39;;;;;;;11.77;9.50;;;21.70;99.90;;;;;;5076547;28;20444;-58
2023/08/20 02:56:07;;;;;;;10.43;9.43;;;21.70;99.90;;;;;;5076361;28;20448;-58
2023/08/20 02:58:33;;;;;;;16.03;9.80;;;21.70;99.90;;;;;;5076364;28;20820;-58
2023/08/20 03:01:00;;;;;;;11.97;9.53;;;21.70;99.90;;;;;;5076212;28;20465;-58
2023/08/20 03:03:27;;;;;;;11.27;10.20;;;21.70;99.90;;;;;;5076265;28;20451;-58
2023/08/20 03:05:54;;;;;;;10.00;9.00;;;21.70;99.90;;;;;;5076162;28;20449;-58
2023/08/20 03:08:20;;;;;;;11.57;9.53;;;21.80;99.90;;;;;;5076194;28;20476;-58
2023/08/20 03:10:47;;;;;;;11.63;9.60;;;21.80;99.90;;;;;;5076494;28;20472;-58
2023/08/20 03:13:15;;;;;;;10.63;9.40;;;21.80;99.90;;;;;;5076398;28;20484;-58
2023/08/20 03:15:42;;;;;;;10.97;9.87;;;21.80;99.90;;;;;;5075994;28;20810;-58
2023/08/20 03:18:09;;;;;;;10.17;9.27;;;21.80;99.90;;;;;;5075765;28;20926;-58
2023/08/20 03:20:35;;;;;;;12.83;10.93;;;21.80;99.90;;;;;;5075552;28;20445;-58
2023/08/20 03:23:02;;;;;;;13.43;10.43;;;21.80;99.90;;;;;;5075858;28;21005;-58
2023/08/20 03:25:29;;;;;;;10.70;9.60;;;21.80;99.90;;;;;;5075592;28;20445;-58
2023/08/20 03:27:55;;;;;;;13.87;9.57;;;21.80;99.90;;;;;;5075499;28;20445;-59
2023/08/20 03:30:23;;;;;;;12.40;8.97;;;21.80;99.90;;;;;;5076013;28;20447;-59
2023/08/20 03:32:50;;;;;;;10.97;9.20;;;21.80;99.90;;;;;;5075421;28;20993;-59
2023/08/20 03:35:17;;;;;;;13.10;9.90;;;21.80;99.90;;;;;;5075494;28;20946;-59
2023/08/20 03:37:43;;;;;;;11.53;10.43;;;21.80;99.90;;;;;;5075735;28;20452;-59
2023/08/20 03:40:11;;;;;;;11.50;10.23;;;21.80;99.90;;;;;;5075694;28;20444;-59
2023/08/20 03:42:37;;;;;;;11.93;10.70;;;21.80;99.90;;;;;;5075515;28;20464;-58
2023/08/20 03:45:05;;;;;;;15.93;11.17;;;21.80;99.90;;;;;;5075567;28;20437;-59
2023/08/20 03:47:33;;;;;;;13.20;11.20;;;21.80;99.90;;;;;;5075567;28;20454;-59
2023/08/20 03:50:00;;;;;;;12.00;10.80;;;21.80;99.90;;;;;;5075124;28;20961;-58
2023/08/20 03:52:26;;;;;;;14.07;11.10;;;21.80;99.90;;;;;;5075293;28;20496;-58
2023/08/20 03:54:53;;;;;;;12.30;11.00;;;21.80;99.90;;;;;;5075271;28;20440;-59
2023/08/20 03:57:20;;;;;;;11.17;9.97;;;21.80;99.90;;;;;;5075309;28;20447;-59
2023/08/20 03:59:47;;;;;;;13.83;10.17;;;21.80;99.90;;;;;;5075258;28;20437;-59
2023/08/20 04:02:14;;;;;;;12.93;10.80;;;21.80;99.90;;;;;;5075133;28;20496;-59
2023/08/20 04:04:42;;;;;;;12.43;10.70;;;21.80;99.90;;;;;;5075228;28;20858;-59
2023/08/20 04:07:09;;;;;;;13.53;10.10;;;21.80;99.90;;;;;;5075039;28;20453;-59
2023/08/20 04:09:36;;;;;;;11.23;10.17;;;21.80;99.90;;;;;;5074754;28;20872;-59
2023/08/20 04:12:04;;;;;;;10.50;9.50;;;21.80;99.90;;;;;;5074859;28;20504;-59
2023/08/20 04:14:31;;;;;;;15.33;10.70;;;21.80;99.90;;;;;;5075090;28;20448;-59
2023/08/20 04:16:57;;;;;;;17.20;11.47;;;21.80;99.90;;;;;;5074813;28;20785;-59
2023/08/20 04:19:24;;;;;;;11.70;10.50;;;21.80;99.90;;;;;;5074996;28;20796;-58
2023/08/20 04:21:52;;;;;;;11.13;10.03;;;21.80;99.90;;;;;;5074490;28;20468;-59
2023/08/20 04:24:19;;;;;;;12.03;10.57;;;21.80;99.90;;;;;;5074789;28;20433;-59
2023/08/20 04:26:45;;;;;;;14.10;10.70;;;21.80;99.90;;;;;;5074678;28;20443;-59
2023/08/20 04:29:12;;;;;;;13.17;10.50;;;21.70;99.90;;;;;;5074699;28;20441;-59
2023/08/20 04:31:39;;;;;;;11.20;9.83;;;21.70;99.90;;;;;;5074449;28;20472;-59
2023/08/20 04:34:05;;;;;;;12.20;11.00;;;21.70;99.90;;;;;;5074620;28;20448;-58
2023/08/20 04:36:32;;;;;;;11.40;10.30;;;21.70;99.90;;;;;;5074520;28;20441;-58
2023/08/20 04:39:00;;;;;;;13.93;11.13;;;21.70;99.90;;;;;;5074043;28;20449;-58
2023/08/20 04:41:27;;;;;;;12.00;10.80;;;21.60;99.90;;;;;;5074611;28;20472;-59
2023/08/20 04:43:53;;;;;;;15.77;10.80;;;21.60;99.90;;;;;;5074784;28;20468;-58
2023/08/20 04:46:20;;;;;;;12.93;11.70;;;21.60;99.80;;;;;;5074635;28;20445;-59
2023/08/20 04:48:47;;;;;;;12.27;10.93;;;21.50;99.80;;;;;;5074381;28;20464;-59
2023/08/20 04:51:14;;;;;;;13.57;10.60;;;21.50;99.80;;;;;;5074006;28;20472;-59
2023/08/20 04:53:40;;;;;;;12.50;11.27;;;21.50;99.90;;;;;;5073868;28;20882;-58
2023/08/20 04:56:08;;;;;;;15.67;11.17;;;21.40;99.90;;;;;;5073812;28;20852;-59
2023/08/20 04:58:35;;;;;;;12.70;11.10;;;21.40;99.90;;;;;;5074070;28;20445;-59
2023/08/20 05:01:02;;;;;;;12.70;11.40;;;21.50;99.90;;;;;;5074759;28;20522;-58
2023/08/20 05:03:28;;;;;;;11.37;10.00;;;21.50;99.90;;;;;;5073990;28;20573;-58
2023/08/20 05:05:55;;;;;;;11.77;10.50;;;21.50;99.90;;;;;;5073905;28;20448;-58
2023/08/20 05:08:22;;;;;;;13.17;11.27;;;21.50;99.90;;;;;;5073827;28;20452;-58
2023/08/20 05:10:50;;;;;;;15.67;11.60;;;21.50;99.90;;;;;;5074474;28;20817;-58
2023/08/20 05:13:20;;;;;;;12.23;11.00;;;21.50;99.90;;;;;;5073825;28;20488;-58
2023/08/20 05:15:47;;;;;;;12.10;10.80;;;21.50;99.90;;;;;;5073861;28;20484;-58
2023/08/20 05:18:14;;;;;;;13.67;11.77;;;21.60;99.90;;;;;;5073735;28;20441;-58
2023/08/20 05:20:41;;;;;;;13.53;12.13;;;21.60;99.90;;;;;;5073213;28;20974;-58
2023/08/20 05:23:08;;;;;;;17.27;12.67;;;21.60;99.90;;;;;;5073460;28;20821;-58
2023/08/20 05:25:34;;;;;;;11.77;10.67;;;21.60;99.90;;;;;;5073985;28;20445;-58
2023/08/20 05:28:01;;;;;;;12.03;11.03;;;21.60;99.90;;;;;;5073661;28;20441;-58
2023/08/20 05:30:29;;;;;;;12.83;11.33;;;21.60;99.90;;;;;;5073511;28;20469;-59
2023/08/20 05:32:56;;;;;;;14.00;12.60;;;21.60;99.90;;;;;;5073490;28;20472;-58
2023/08/20 05:35:22;;;;;;;14.90;13.40;;;21.50;99.90;;;;;;5073834;28;20440;-58
2023/08/20 05:37:49;;;;;;;17.03;13.50;;;21.50;99.90;;;;;;5073275;28;20983;-58
2023/08/20 05:40:17;;;;;;;17.90;13.33;;;21.50;99.90;;;;;;5073150;28;20816;-58
2023/08/20 05:42:43;;;;;;;21.20;13.73;;;21.40;99.90;;;;;;5073470;28;20876;-58
2023/08/20 05:45:10;;;;;;;17.37;13.13;;;21.40;99.90;;;;;;5073404;28;20437;-58
2023/08/20 05:47:38;;;;;;;15.10;13.50;;;21.40;99.90;;;;;;5073107;28;20796;-58
2023/08/20 05:50:06;;;;;;;15.47;13.87;;;21.40;99.90;;;;;;5072757;28;20807;-58
2023/08/20 05:52:32;;;;;;;17.57;15.10;;;21.50;99.90;;;;;;5072856;28;20488;-58
2023/08/20 05:54:59;;;;;;;19.30;15.10;;;21.50;99.90;;;;;;5073204;28;20492;-58
2023/08/20 05:57:26;;;;;;;15.90;14.40;;;21.50;99.90;;;;;;5073292;28;20441;-58
2023/08/20 05:59:52;;;;;;;19.20;14.50;;;21.60;99.90;;;;;;5073230;28;20445;-58
2023/08/20 06:02:19;;;;;;;19.17;16.17;;;21.60;99.90;;;;;;5073191;28;20465;-58
2023/08/20 06:04:47;;;;;;;18.23;16.43;;;21.70;99.90;;;;;;5073344;28;20436;-58
2023/08/20 06:07:14;;;;;;;16.50;14.77;;;21.70;99.90;;;;;;5072856;28;21003;-58
2023/08/20 06:09:40;;;;;;;17.90;16.00;;;21.80;99.90;;;;;;5073163;28;20456;-58
2023/08/20 06:12:08;;;;;;;20.00;16.20;;;21.80;99.90;;;;;;5073127;28;20535;-58
2023/08/20 06:14:34;;;;;;;18.13;16.03;;;21.90;99.90;;;;;;5073972;28;20467;-59
2023/08/20 06:17:02;;;;;;;20.50;16.47;;;21.90;99.90;;;;;;5073449;28;20437;-58
2023/08/20 06:19:29;;;;;;;17.53;15.50;;;22.00;99.90;;;;;;5072751;28;20934;-58
2023/08/20 06:21:57;;;;;;;19.70;17.60;;;22.00;99.90;;;;;;5072625;28;20469;-58
2023/08/20 06:24:23;;;;;;;17.70;15.77;;;22.00;99.90;;;;;;5073051;28;20444;-58
2023/08/20 06:26:51;;;;;;;20.03;17.83;;;22.10;99.90;;;;;;5073030;28;20449;-58
2023/08/20 06:29:18;;;;;;;17.20;15.40;;;22.10;99.90;;;;;;5072624;28;20451;-58
2023/08/20 06:31:45;;;;;;;17.67;14.50;;;22.20;99.90;;;;;;5073250;28;20483;-58
2023/08/20 06:34:11;;;;;;;15.47;13.67;;;22.20;99.90;;;;;;5073613;28;20477;-58
2023/08/20 06:36:38;;;;;;;17.47;15.07;;;22.30;99.90;;;;;;5073524;28;20473;-58
2023/08/20 06:39:06;;;;;;;17.43;15.60;;;22.40;99.90;;;;;;5073773;28;20445;-58
2023/08/20 06:41:33;;;;;;;19.00;15.47;;;22.50;99.90;;;;;;5073258;28;20461;-58
2023/08/20 06:44:00;;;;;;;15.10;13.57;;;22.50;99.90;;;;;;5073067;28;20444;-59
2023/08/20 06:46:26;;;;;;;19.40;16.87;;;22.60;99.90;;;;;;5073128;28;20448;-59
2023/08/20 06:48:53;;;;;;;19.13;15.53;;;22.70;99.90;;;;;;5073116;28;20440;-58
2023/08/20 06:51:21;;;;;;;18.13;16.23;;;22.70;99.90;;;;;;5072983;28;20479;-58
2023/08/20 06:53:48;;;;;;;18.23;14.80;;;22.80;99.90;;;;;;5072900;28;20891;-59
2023/08/20 06:56:16;;;;;;;17.07;15.27;;;22.90;99.90;;;;;;5072684;28;20457;-59
2023/08/20 06:58:43;;;;;;;17.60;15.70;;;22.90;99.90;;;;;;5072816;28;20452;-59
2023/08/20 07:01:12;;;;;;;17.80;14.83;;;23.00;99.90;;;;;;5072976;28;20464;-59
2023/08/20 07:03:41;;;;;;;17.90;16.10;;;23.10;99.90;;;;;;5075746;28;20859;-59
2023/08/20 07:06:09;;;;;;;16.83;15.10;;;23.20;99.90;;;;;;5076416;28;20444;-59
2023/08/20 07:08:36;;;;;;;17.10;14.67;;;23.30;99.90;;;;;;5076383;28;20528;-59
2023/08/20 07:11:03;;;;;;;16.37;14.00;;;23.30;99.60;;;;;;5075820;28;21066;-59
2023/08/20 07:13:31;;;;;;;15.27;13.67;;;23.50;99.40;;;;;;5076162;28;20480;-59
2023/08/20 07:15:57;;;;;;;13.43;12.03;;;23.60;99.00;;;;;;5076485;28;20453;-59
2023/08/20 07:18:24;;;;;;;16.73;14.87;;;23.70;99.10;;;;;;5076107;28;20810;-59
2023/08/20 07:20:51;;;;;;;15.87;12.43;;;23.90;98.70;;;;;;5076010;28;20487;-60
2023/08/20 07:23:18;;;;;;;13.47;11.27;;;24.00;98.40;;;;;;5075983;28;20430;-59
2023/08/20 07:25:45;;;;;;;12.47;11.37;;;24.10;98.30;;;;;;5075920;28;20440;-59
2023/08/20 07:28:12;;;;;;;14.30;10.40;;;24.30;98.10;;;;;;5075838;28;20437;-60
2023/08/20 07:30:40;;;;;;;15.17;10.60;;;24.50;97.70;;;;;;5075900;28;20467;-60
2023/08/20 07:33:08;;;;;;;16.47;13.37;;;24.60;97.40;;;;;;5075338;28;21001;-59
2023/08/20 07:35:35;;;;;;;21.27;12.73;;;24.70;97.10;;;;;;5075947;28;20441;-59
2023/08/20 07:38:02;;;;;;;14.47;13.07;;;24.90;96.70;;;;;;5075468;28;20943;-60
2023/08/20 07:40:29;;;;;;;17.20;11.13;;;25.00;96.70;;;;;;5075676;28;20448;-60
2023/08/20 07:42:56;;;;;;;16.50;13.23;;;25.10;96.30;;;;;;5075338;28;20969;-60
2023/08/20 07:45:22;;;;;;;17.10;13.87;;;25.30;96.20;;;;;;5075348;28;20449;-60
2023/08/20 07:47:50;;;;;;;15.67;13.87;;;25.40;95.70;;;;;;5075236;28;20444;-60
2023/08/20 07:50:17;;;;;;;16.53;13.47;;;25.50;95.40;;;;;;5075444;28;20441;-60
2023/08/20 07:52:44;;;;;;;14.63;13.13;;;25.60;95.10;;;;;;5075439;28;20535;-60
2023/08/20 07:55:10;;;;;;;14.00;12.50;;;25.70;94.90;;;;;;5075379;28;20448;-60
2023/08/20 07:57:37;;;;;;;9.57;8.50;;;25.80;94.50;;;;;;5075431;28;20451;-60
2023/08/20 08:00:05;;;;;;;11.40;8.70;;;26.00;94.30;;;;;;5075341;28;20477;-60
2023/08/20 08:02:31;;;;;;;14.10;11.63;;;26.20;94.00;;;;;;5075086;28;20456;-60
2023/08/20 08:04:59;;;;;;;17.37;13.43;;;26.50;93.80;;;;;;5075259;28;20437;-60
2023/08/20 08:07:26;;;;;;;13.40;11.97;;;26.70;93.30;;;;;;5074898;28;20796;-60
2023/08/20 08:09:53;;;;;;;13.23;11.50;;;26.80;92.80;;;;;;5075166;28;20444;-60
2023/08/20 08:12:20;;;;;;;18.00;13.50;;;27.00;92.30;;;;;;5074973;28;20465;-60
2023/08/20 08:14:46;;;;;;;18.27;15.57;;;27.20;91.80;;;;;;5074243;28;20487;-60
2023/08/20 08:17:13;;;;;;;20.10;16.07;;;27.40;91.40;;;;;;5074975;28;20448;-60
2023/08/20 08:19:40;;;;;;;16.37;13.53;;;27.50;90.70;;;;;;5075848;28;20444;-60
2023/08/20 08:22:08;;;;;;;15.53;13.97;;;27.70;90.20;;;;;;5074387;28;21005;-60
2023/08/20 08:24:35;;;;;;;15.57;13.47;;;27.80;90.30;;;;;;5074860;28;20437;-60
2023/08/20 08:27:01;;;;;;;13.57;11.50;;;28.00;90.00;;;;;;5075192;28;20440;-60
2023/08/20 08:29:28;;;;;;;10.00;9.00;;;28.10;89.40;;;;;;5074782;28;20452;-60
2023/08/20 08:31:55;;;;;;;12.07;10.97;;;28.30;89.60;;;;;;5074894;28;20460;-60
2023/08/20 08:34:21;;;;;;;8.73;7.83;;;28.50;87.70;;;;;;5074884;28;20480;-60
2023/08/20 08:36:48;;;;;;;8.50;6.80;;;28.80;86.50;;;;;;5074260;28;20934;-58
2023/08/20 08:39:16;;;;;;;13.87;11.70;;;29.00;85.50;;;;;;5074221;28;20934;-58
2023/08/20 08:41:43;;;;;;;12.40;9.80;;;29.30;83.70;;;;;;5074678;28;20460;-58
2023/08/20 08:44:10;;;;;;;10.23;8.90;;;29.60;82.20;;;;;;5074500;28;20451;-58
2023/08/20 08:46:39;;;;;;;7.90;7.00;;;29.80;81.20;;;;;;5074421;28;20449;-58
2023/08/20 08:49:05;;;;;;;8.20;7.40;;;30.10;79.80;;;;;;5074066;28;20964;-58
2023/08/20 08:51:34;;;;;;;11.67;8.50;;;30.40;78.80;;;;;;5074333;28;20908;-58
2023/08/20 08:54:02;;;;;;;9.53;6.97;;;30.60;77.50;;;;;;5074252;28;20486;-58
2023/08/20 08:56:30;;;;;;;8.70;7.13;;;30.80;75.90;;;;;;5074223;28;20447;-58
2023/08/20 08:58:57;;;;;;;7.47;6.50;;;31.00;74.20;;;;;;5074472;28;20444;-58
2023/08/20 09:01:24;;;;;;;6.33;5.73;;;31.20;73.20;;;;;;5073761;28;20460;-58
2023/08/20 09:03:50;;;;;;;7.70;7.07;;;31.50;72.20;;;;;;5074326;28;20444;-58
2023/08/20 09:06:17;;;;;;;7.40;6.33;;;31.60;71.20;;;;;;5073832;28;20818;-58
2023/08/20 09:08:44;;;;;;;5.27;4.87;;;31.90;70.00;;;;;;5073987;28;20443;-58
2023/08/20 09:11:10;;;;;;;8.20;5.70;;;32.00;68.80;;;;;;5074127;28;20468;-59
2023/08/20 09:13:40;;;;;;;6.67;6.07;;;32.20;66.90;;;;;;5073954;28;20475;-58
2023/08/20 09:16:08;;;;;;;7.43;6.83;;;32.20;65.40;;;;;;5073900;28;20452;-60
2023/08/20 09:18:39;;;;;;;7.23;6.53;;;32.30;65.20;;;;;;5073752;28;20440;-59
2023/08/20 09:21:08;;;;;;;7.40;6.70;;;32.40;63.80;;;;;;5073595;28;20476;-58
2023/08/20 09:23:35;;;;;;;8.73;7.93;;;32.60;60.80;;;;;;5073403;28;20926;-58
2023/08/20 09:26:03;;;;;;;10.97;9.83;;;32.70;59.60;;;;;;5073607;28;20443;-58
2023/08/20 09:28:41;;;;;;;8.50;7.70;;;32.80;58.70;;;;;;5073618;28;20870;-58
2023/08/20 09:31:09;;;;;;;8.80;7.20;;;33.00;58.10;;;;;;5073637;28;20493;-58
2023/08/20 09:33:35;;;;;;;8.00;7.20;;;32.90;56.70;;;;;;5073603;28;20483;-58
2023/08/20 09:36:04;;;;;;;8.97;7.77;;;32.90;56.60;;;;;;5073904;28;20440;-58
2023/08/20 09:38:38;;;;;;;5.70;5.20;;;32.80;56.20;;;;;;5073636;28;20471;-58
2023/08/20 09:41:06;;;;;;;5.53;5.10;;;32.80;56.00;;;;;;5073490;28;20466;-58
2023/08/20 09:43:37;;;;;;;5.93;5.43;;;33.00;56.80;;;;;;5073518;28;20440;-58
2023/08/20 09:46:06;;;;;;;11.03;8.10;;;33.40;56.90;;;;;;5073255;28;20807;-58
2023/08/20 09:48:36;;;;;;;10.83;6.70;;;33.90;55.10;;;;;;5073427;28;20444;-58
2023/08/20 09:51:06;;;;;;;7.50;6.90;;;34.30;53.90;;;;;;5073211;28;20499;-58
2023/08/20 09:53:36;;;;;;;8.07;7.37;;;34.50;52.70;;;;;;5073434;28;20810;-58
2023/08/20 09:56:10;;;;;;;8.90;8.00;;;34.60;52.20;;;;;;5073666;28;20467;-58
2023/08/20 09:58:37;;;;;;;7.10;6.40;;;34.40;51.80;;;;;;5073538;28;20428;-58
2023/08/20 10:01:04;;;;;;;8.10;7.40;;;34.10;51.70;;;;;;5072974;28;20985;-58
2023/08/20 10:03:31;;;;;;;9.80;7.93;;;33.70;52.10;;;;;;5073211;28;20447;-58
2023/08/20 10:06:02;;;;;;;12.47;9.13;;;33.30;52.70;;;;;;5072988;28;20938;-58
2023/08/20 10:08:29;;;;;;;13.27;8.70;;;33.00;53.50;;;;;;5072970;28;20866;-58
2023/08/20 10:10:57;;;;;;;12.67;8.50;;;32.70;54.30;;;;;;5073142;28;20460;-58
2023/08/20 10:13:23;;;;;;;10.60;7.50;;;32.50;55.10;;;;;;5072812;28;20793;-58
2023/08/20 10:15:51;;;;;;;8.00;7.20;;;32.30;55.70;;;;;;5073144;28;20447;-59
2023/08/20 10:18:20;;;;;;;11.80;8.00;;;32.20;55.70;;;;;;5073172;28;20447;-58
2023/08/20 10:20:47;;;;;;;14.10;8.17;;;32.20;56.50;;;;;;5072896;28;20467;-58
2023/08/20 10:23:16;;;;;;;10.80;7.70;;;32.10;57.00;;;;;;5073168;28;20429;-58
2023/08/20 10:25:44;;;;;;;8.13;6.70;;;32.10;56.40;;;;;;5072753;28;20452;-58
2023/08/20 10:28:20;;;;;;;9.17;6.93;;;32.00;56.20;;;;;;5073059;28;20459;-58
2023/08/20 10:31:12;;;;;;;7.90;7.20;;;31.90;56.80;;;;;;5072949;28;21025;-58
2023/08/20 10:33:49;;;;;;;8.60;6.90;;;31.80;57.50;;;;;;5057812;28;20455;-58
2023/08/20 10:36:17;;;;;;;8.77;7.87;;;31.60;57.60;;;;;;5073007;28;20424;-58
2023/08/20 10:38:46;;;;;;;9.87;7.47;;;31.70;57.70;;;;;;5076775;28;20448;-58
2023/08/20 10:41:16;;;;;;;7.53;6.70;;;32.20;58.00;;;;;;5076851;28;20475;-58
2023/08/20 10:43:48;;;;;;;9.50;7.30;;;32.50;56.30;;;;;;5076871;28;20455;-58
2023/08/20 10:46:16;;;;;;;7.93;5.97;;;32.80;56.30;;;;;;5076839;28;20459;-58
2023/08/20 10:48:44;;;;;;;6.83;6.17;;;33.20;56.20;;;;;;5076902;28;20451;-60
2023/08/20 10:51:12;;;;;;;7.50;6.80;;;33.90;56.00;;;;;;5076659;28;20471;-59
2023/08/20 10:53:40;;;;;;;7.57;6.87;;;34.60;54.80;;;;;;5076517;28;20448;-59
2023/08/20 10:56:16;;;;;;;7.47;6.73;;;35.10;52.80;;;;;;5076610;28;20451;-60
2023/08/20 10:58:44;;;;;;;8.93;6.50;;;35.70;51.80;;;;;;5076526;28;20447;-60
2023/08/20 11:01:16;;;;;;;6.57;5.90;;;36.70;50.10;;;;;;5076708;28;20228;-60
2023/08/20 11:03:43;;;;;;;6.70;6.20;;;37.60;47.20;;;;;;5076119;28;20210;-60
2023/08/20 11:06:11;;;;;;;6.53;5.93;;;38.30;43.90;;;;;;5076476;28;20202;-60
2023/08/20 11:08:38;;;;;;;7.45;6.43;;;38.70;42.00;;;;;;5076344;28;20208;-60
2023/08/20 11:11:04;;;;;;;5.50;5.10;;;39.20;41.40;;;;;;5076191;28;20313;-60
2023/08/20 11:13:34;;;;;;;5.30;4.80;;;39.70;39.90;;;;;;5075840;28;20672;-60
2023/08/20 11:16:02;;;;;;;6.57;5.47;;;40.30;38.80;;;;;;5075960;28;20730;-60
2023/08/20 11:18:29;;;;;;;7.47;5.60;;;41.10;37.50;;;;;;5076229;28;20228;-60
2023/08/20 11:20:56;;;;;;;6.00;5.40;;;41.90;34.60;;;;;;5075646;28;20753;-60
2023/08/20 11:23:23;;;;;;;6.70;6.05;;;42.50;32.90;;;;;;5076141;28;20186;-60
2023/08/20 11:25:49;;;;;;;7.05;6.43;;;42.50;32.00;;;;;;5076138;28;20229;-60
2023/08/20 11:28:16;;;;;;;6.03;5.63;;;41.90;32.40;;;;;;5076013;28;20205;-60
2023/08/20 11:30:44;;;;;;;7.78;6.97;;;41.00;33.60;;;;;;5075652;28;20228;-61
2023/08/20 11:33:11;;;;;;;7.30;6.60;;;40.10;35.20;;;;;;5059278;28;20207;-60
2023/08/20 11:35:38;;;;;;;7.60;6.90;;;39.10;37.00;;;;;;5055297;28;20218;-60
2023/08/20 11:38:06;;;;;;;6.82;5.75;;;38.40;38.90;;;;;;5055558;28;20580;-60
2023/08/20 11:40:33;;;;;;;7.07;6.00;;;38.20;40.20;;;;;;5055549;28;20742;-60
2023/08/20 11:43:01;;;;;;;6.88;6.28;;;38.80;40.00;;;;;;5055706;28;20206;-60
2023/08/20 11:45:28;;;;;;;10.70;6.50;;;39.50;37.70;;;;;;5055612;28;20205;-60
2023/08/20 11:47:58;;;;;;;6.55;5.95;;;39.60;36.50;;;;;;5055090;28;20206;-60
2023/08/20 11:50:25;;;;;;;7.80;6.97;;;39.50;37.00;;;;;;5054923;28;20187;-60
2023/08/20 11:52:54;;;;;;;7.30;6.70;;;40.00;36.50;;;;;;5055266;28;20672;-60
2023/08/20 11:55:24;;;;;;;6.15;5.65;;;40.80;34.80;;;;;;5055502;28;20265;-60
2023/08/20 11:57:51;;;;;;;6.10;5.57;;;41.70;34.60;;;;;;5055450;28;20236;-60
2023/08/20 12:00:26;;;;;;;7.05;6.32;;;42.60;33.00;;;;;;5055255;28;20206;-60
2023/08/20 12:02:54;;;;;;;6.80;6.10;;;43.20;30.60;;;;;;5055237;28;20190;-60
2023/08/20 12:05:26;;;;;;;7.10;5.63;;;43.10;29.80;;;;;;5055099;28;20198;-60
2023/08/20 12:07:57;;;;;;;6.30;5.70;;;42.90;30.00;;;;;;5055286;28;20656;-60
2023/08/20 12:10:25;;;;;;;8.23;7.45;;;43.00;30.10;;;;;;5056780;28;20265;-60
2023/08/20 12:12:52;;;;;;;8.27;6.30;;;43.50;29.50;;;;;;5056477;28;20202;-60
2023/08/20 12:15:19;;;;;;;6.35;5.80;;;44.10;28.50;;;;;;5056535;28;20715;-60
2023/08/20 12:17:59;;;;;;;7.00;6.40;;;44.20;28.70;;;;;;5056126;28;20210;-59
2023/08/20 12:20:29;;;;;;;8.65;7.68;;;43.50;29.30;;;;;;5055068;28;20194;-59
2023/08/20 12:22:59;;;;;;;9.70;8.77;;;42.50;30.00;;;;;;5055148;28;20214;-59
2023/08/20 12:25:26;;;;;;;10.63;9.73;;;41.30;31.80;;;;;;5054932;28;20199;-59
2023/08/20 12:27:52;;;;;;;11.35;9.50;;;40.20;33.70;;;;;;5054926;28;20207;-59
2023/08/20 12:30:20;;;;;;;10.02;9.10;;;39.20;35.30;;;;;;5054719;28;20209;-59
2023/08/20 12:32:47;;;;;;;8.88;8.18;;;38.30;36.80;;;;;;5054758;28;20561;-59
2023/08/20 12:35:14;;;;;;;10.32;9.30;;;37.70;38.60;;;;;;5054595;28;20230;-59
2023/08/20 12:37:42;;;;;;;11.43;10.50;;;37.40;39.80;;;;;;5054707;28;20253;-59